Roanoke, Missouri
Current Conditions -  °F | °C
As of 4:15 PM on Monday 20 Oct 2014 (Local Time) from KVER Reporting Station
Clear Clear  
Wind Chill: 73°   Ceiling: Unl
Heat Index: 73°   Visibility: 10mi
Dew Point: 40°   Wind: 9mph
Humidity: 30%   Direction: 330°NNW
Pressure: 30"   Gusts: NA
Location:  39.2595°N, 92.7114°W
Report Text: KVER 202115Z AUTO 33008KT 10SM CLR 23/04 A3000 RMK AO2 T02250042
Loading
Personal Weather Stations






























Interactive Weather Map
Tropical Storm Tracking
New forecast layout! Learn more

10-Day Weather Forecast

Advertisements
Track Severe Weather on mobile